Time;durP1;ratioP1;P1;durP2;ratioP2;P2;SDS_P1;SDS_P2;PMS_P1;PMS_P2;Temp;Humidity;BMP_temperature;BMP_pressure;BME280_temperature;BME280_humidity;BME280_pressure;Samples;Min_cycle;Max_cycle;Signal;HPM_P1;HPM_P2
2021/09/28 00:01:22;;;;;;;;;;;;;;;18.71;64.89;101732.47;5073653;28;1521;-64
2021/09/28 00:03:47;;;;;;;;;;;;;;;18.69;65.44;101732.59;5055765;28;1643;-62
2021/09/28 00:06:12;;;;;;;;;;;;;;;18.67;64.85;101745.38;5073277;28;1518;-62
2021/09/28 00:08:37;;;;;;;;;;;;;;;18.70;65.79;101744.25;5073051;28;1533;-64
2021/09/28 00:11:03;;;;;;;;;;;;;;;18.67;65.27;101742.66;5073354;28;1919;-64
2021/09/28 00:13:28;;;;;;;;;;;;;;;18.67;65.09;101744.50;5073461;28;1955;-64
2021/09/28 00:15:53;;;;;;;;;;;;;;;18.66;64.69;101745.50;5074323;28;1479;-62
2021/09/28 00:18:18;;;;;;;;;;;;;;;18.66;64.67;101750.88;5074695;28;1914;-62
2021/09/28 00:20:43;;;;;;;;;;;;;;;18.66;65.05;101750.88;5074768;28;882;-62
2021/09/28 00:23:08;;;;;;;;;;;;;;;18.63;65.02;101754.69;5075079;28;1013;-62
2021/09/28 00:25:33;;;;;;;;;;;;;;;18.62;65.17;101753.03;5074900;28;937;-63
2021/09/28 00:27:58;;;;;;;;;;;;;;;18.63;64.64;101753.88;5074899;28;1828;-62
2021/09/28 00:30:23;;;;;;;;;;;;;;;18.65;64.99;101757.28;5074667;28;926;-62
2021/09/28 00:32:48;;;;;;;;;;;;;;;18.64;64.30;101755.56;5074472;28;1910;-62
2021/09/28 00:35:13;;;;;;;;;;;;;;;18.65;64.46;101759.97;5074628;28;1025;-62
2021/09/28 00:37:39;;;;;;;;;;;;;;;18.64;65.02;101758.25;5074417;28;969;-62
2021/09/28 00:40:04;;;;;;;;;;;;;;;18.64;65.47;101759.13;5074444;28;1910;-62
2021/09/28 00:42:29;;;;;;;;;;;;;;;18.64;65.79;101766.34;5074584;28;910;-62
2021/09/28 00:44:54;;;;;;;;;;;;;;;18.62;65.16;101768.34;5074638;28;993;-62
2021/09/28 00:47:19;;;;;;;;;;;;;;;18.60;64.66;101763.09;5074570;28;807;-62
2021/09/28 00:49:44;;;;;;;;;;;;;;;18.61;65.33;101766.66;5074683;28;1071;-62
2021/09/28 00:52:09;;;;;;;;;;;;;;;18.59;64.83;101776.72;5074602;28;997;-62
2021/09/28 00:54:37;;;;;;;;;;;;;;;18.59;65.06;101769.47;5074571;28;1914;-62
2021/09/28 00:57:02;;;;;;;;;;;;;;;18.55;64.83;101772.50;5074677;28;874;-62
2021/09/28 00:59:27;;;;;;;;;;;;;;;18.55;65.16;101772.50;5074580;28;860;-62
2021/09/28 01:01:52;;;;;;;;;;;;;;;18.55;65.13;101776.06;5077447;28;1060;-62
2021/09/28 01:04:17;;;;;;;;;;;;;;;18.56;64.72;101779.63;5078106;28;898;-61
2021/09/28 01:06:42;;;;;;;;;;;;;;;18.54;65.25;101776.19;5077765;28;2103;-62
2021/09/28 01:09:07;;;;;;;;;;;;;;;18.50;65.40;101774.72;5078033;28;1020;-62
2021/09/28 01:11:32;;;;;;;;;;;;;;;18.50;65.93;101772.88;5077590;28;981;-61
2021/09/28 01:13:57;;;;;;;;;;;;;;;18.51;65.12;101777.31;5077644;28;1953;-63
2021/09/28 01:16:24;;;;;;;;;;;;;;;18.48;64.89;101776.69;5077679;28;1009;-62
2021/09/28 01:18:49;;;;;;;;;;;;;;;18.50;65.32;101777.44;5059554;28;839;-63
2021/09/28 01:21:14;;;;;;;;;;;;;;;18.51;65.41;101776.44;5059941;28;1712;-63
2021/09/28 01:23:44;;;;;;;;;;;;;;;18.50;65.21;101780.13;5077893;28;1020;-63
2021/09/28 01:26:09;;;;;;;;;;;;;;;18.52;65.06;101779.03;5077469;28;906;-63
2021/09/28 01:28:34;;;;;;;;;;;;;;;18.51;64.76;101788.09;5077705;28;795;-62
2021/09/28 01:30:59;;;;;;;;;;;;;;;18.49;64.65;101784.66;5077154;28;2018;-64
2021/09/28 01:33:24;;;;;;;;;;;;;;;18.49;65.19;101783.81;5077222;28;2076;-62
2021/09/28 01:35:50;;;;;;;;;;;;;;;18.50;65.23;101789.09;5059468;28;1251;-63
2021/09/28 01:38:15;;;;;;;;;;;;;;;18.49;64.85;101783.81;5077622;28;1760;-63
2021/09/28 01:40:40;;;;;;;;;;;;;;;18.47;64.52;101781.25;5077611;28;989;-62
2021/09/28 01:43:05;;;;;;;;;;;;;;;18.42;65.34;101780.78;5076373;28;1593;-63
2021/09/28 01:45:30;;;;;;;;;;;;;;;18.45;64.95;101779.69;5064721;28;1619;-63
2021/09/28 01:47:55;;;;;;;;;;;;;;;18.42;64.59;101777.22;5076396;28;1739;-63
2021/09/28 01:50:20;;;;;;;;;;;;;;;18.45;65.29;101774.28;5076317;28;1829;-63
2021/09/28 01:52:45;;;;;;;;;;;;;;;18.45;64.76;101776.97;5076241;28;1985;-63
2021/09/28 01:55:10;;;;;;;;;;;;;;;18.44;65.00;101770.72;5058392;28;1701;-62
2021/09/28 01:57:35;;;;;;;;;;;;;;;18.44;64.45;101784.22;5077037;28;858;-62
2021/09/28 02:00:00;;;;;;;;;;;;;;;18.45;64.92;101787.78;5076972;28;977;-63
2021/09/28 02:02:27;;;;;;;;;;;;;;;18.50;65.76;101785.53;5076693;28;1688;-62
2021/09/28 02:04:52;;;;;;;;;;;;;;;18.45;65.99;101782.38;5077056;28;1880;-63
2021/09/28 02:07:17;;;;;;;;;;;;;;;18.43;66.00;101778.94;5076931;28;823;-62
2021/09/28 02:09:42;;;;;;;;;;;;;;;18.41;65.92;101786.31;5076474;28;2222;-62
2021/09/28 02:12:07;;;;;;;;;;;;;;;18.37;65.67;101783.00;5076810;28;1798;-63
2021/09/28 02:14:32;;;;;;;;;;;;;;;18.34;65.16;101786.81;5076880;28;1951;-63
2021/09/28 02:16:57;;;;;;;;;;;;;;;18.34;65.45;101786.81;5058674;28;899;-64
2021/09/28 02:19:22;;;;;;;;;;;;;;;18.34;64.61;101786.81;5076402;28;1555;-62
2021/09/28 02:21:47;;;;;;;;;;;;;;;18.36;64.49;101779.44;5075887;28;1630;-62
2021/09/28 02:24:12;;;;;;;;;;;;;;;18.34;63.45;101783.25;5076092;28;1788;-62
2021/09/28 02:26:37;;;;;;;;;;;;;;;18.33;63.93;101778.84;5075633;28;1802;-62
2021/09/28 02:29:03;;;;;;;;;;;;;;;18.32;64.83;101783.38;5075857;28;1511;-62
2021/09/28 02:31:28;;;;;;;;;;;;;;;18.29;64.06;101783.63;5075892;28;2149;-63
2021/09/28 02:33:53;;;;;;;;;;;;;;;18.29;64.45;101788.16;5075939;28;1934;-64
2021/09/28 02:36:18;;;;;;;;;;;;;;;18.28;63.71;101787.31;5075721;28;1621;-64
2021/09/28 02:38:43;;;;;;;;;;;;;;;18.27;64.33;101793.69;5075765;28;1631;-61
2021/09/28 02:41:08;;;;;;;;;;;;;;;18.27;63.91;101785.59;5076010;28;1038;-63
2021/09/28 02:43:33;;;;;;;;;;;;;;;18.25;64.30;101794.81;5075674;28;1550;-63
2021/09/28 02:45:58;;;;;;;;;;;;;;;18.24;63.59;101793.97;5057423;28;1724;-61
2021/09/28 02:48:23;;;;;;;;;;;;;;;18.25;63.81;101798.38;5075830;28;2084;-62
2021/09/28 02:50:48;;;;;;;;;;;;;;;18.23;63.33;101792.25;5076192;28;1088;-62
2021/09/28 02:53:13;;;;;;;;;;;;;;;18.22;63.13;101793.22;5075240;28;1905;-63
2021/09/28 02:55:39;;;;;;;;;;;;;;;18.22;63.61;101792.38;5057793;28;1202;-63
2021/09/28 02:58:04;;;;;;;;;;;;;;;18.21;63.68;101796.91;5075251;28;1710;-63
2021/09/28 03:00:29;;;;;;;;;;;;;;;18.19;63.88;101792.63;5075277;28;1632;-63
2021/09/28 03:02:54;;;;;;;;;;;;;;;18.20;63.85;101797.88;5075718;28;1614;-64
2021/09/28 03:05:19;;;;;;;;;;;;;;;18.18;64.02;101807.94;5075879;28;1608;-63
2021/09/28 03:07:44;;;;;;;;;;;;;;;18.17;63.46;101800.81;5075737;28;993;-63
2021/09/28 03:10:09;;;;;;;;;;;;;;;18.16;63.77;101803.66;5075277;28;1748;-64
2021/09/28 03:12:34;;;;;;;;;;;;;;;18.15;63.71;101805.50;5075287;28;1752;-67
2021/09/28 03:14:59;;;;;;;;;;;;;;;18.16;63.73;101804.50;5075471;28;1948;-66
2021/09/28 03:17:25;;;;;;;;;;;;;;;18.14;63.78;101800.22;5075077;28;1037;-66
2021/09/28 03:19:50;;;;;;;;;;;;;;;18.13;63.66;101810.16;5075727;28;861;-67
2021/09/28 03:22:17;;;;;;;;;;;;;;;18.12;63.26;101808.44;5075488;28;2008;-67
2021/09/28 03:24:42;;;;;;;;;;;;;;;18.12;63.10;101811.13;5075131;28;876;-67
2021/09/28 03:27:07;;;;;;;;;;;;;;;18.10;63.29;101810.38;5075308;28;1005;-67
2021/09/28 03:29:32;;;;;;;;;;;;;;;18.10;63.18;101814.94;5075617;28;1006;-67
2021/09/28 03:31:57;;;;;;;;;;;;;;;18.09;62.71;101818.63;5075681;28;866;-65
2021/09/28 03:34:22;;;;;;;;;;;;;;;18.08;63.20;101817.78;5075396;28;1909;-65
2021/09/28 03:36:47;;;;;;;;;;;;;;;18.06;63.54;101825.13;5075164;28;1032;-65
2021/09/28 03:39:12;;;;;;;;;;;;;;;18.07;63.35;101820.59;5075105;28;1005;-64
2021/09/28 03:41:37;;;;;;;;;;;;;;;18.06;62.81;101819.75;5075280;28;941;-65
2021/09/28 03:44:03;;;;;;;;;;;;;;;18.04;63.31;101824.41;5074967;28;1960;-63
2021/09/28 03:46:28;;;;;;;;;;;;;;;18.03;62.96;101822.69;5075100;28;2046;-62
2021/09/28 03:48:53;;;;;;;;;;;;;;;18.02;62.77;101819.13;5075242;28;2146;-62
2021/09/28 03:51:18;;;;;;;;;;;;;;;18.01;62.73;101827.34;5075304;28;989;-62
2021/09/28 03:53:43;;;;;;;;;;;;;;;18.02;63.16;101818.25;5074920;28;1991;-63
2021/09/28 03:56:08;;;;;;;;;;;;;;;18.00;62.78;101822.91;5075038;28;1187;-63
2021/09/28 03:58:33;;;;;;;;;;;;;;;17.99;62.96;101829.28;5075023;28;926;-62
2021/09/28 04:00:58;;;;;;;;;;;;;;;17.99;63.03;101834.69;5074694;28;1064;-62
2021/09/28 04:03:23;;;;;;;;;;;;;;;17.97;62.46;101833.94;5075129;28;1969;-63
2021/09/28 04:05:48;;;;;;;;;;;;;;;17.96;62.80;101841.19;5075111;28;1041;-62
2021/09/28 04:08:13;;;;;;;;;;;;;;;17.97;63.05;101842.03;5074892;28;989;-62
2021/09/28 04:10:39;;;;;;;;;;;;;;;17.97;62.56;101833.94;5075042;28;965;-63
2021/09/28 04:13:04;;;;;;;;;;;;;;;17.95;62.64;101842.16;5074660;28;2000;-63
2021/09/28 04:15:29;;;;;;;;;;;;;;;17.94;62.22;101843.16;5074767;28;889;-62
2021/09/28 04:17:54;;;;;;;;;;;;;;;17.93;62.36;101851.34;5056688;28;1260;-63
2021/09/28 04:20:19;;;;;;;;;;;;;;;17.93;62.45;101848.66;5074951;28;862;-63
2021/09/28 04:22:44;;;;;;;;;;;;;;;17.93;62.47;101846.81;5074885;28;1004;-63
2021/09/28 04:25:09;;;;;;;;;;;;;;;17.93;62.39;101846.81;5074799;28;2109;-63
2021/09/28 04:27:34;;;;;;;;;;;;;;;17.90;63.00;101849.78;5074553;28;933;-64
2021/09/28 04:29:59;;;;;;;;;;;;;;;17.90;62.41;101841.69;5074865;28;989;-63
2021/09/28 04:32:24;;;;;;;;;;;;;;;17.90;62.58;101847.09;5074994;28;1017;-63
2021/09/28 04:34:49;;;;;;;;;;;;;;;17.90;62.76;101852.47;5074542;28;1949;-63
2021/09/28 04:37:15;;;;;;;;;;;;;;;17.88;62.29;101845.50;5078385;28;837;-63
2021/09/28 04:39:40;;;;;;;;;;;;;;;17.87;62.60;101844.63;5078455;28;799;-63
2021/09/28 04:42:05;;;;;;;;;;;;;;;17.85;62.24;101843.91;5078598;28;937;-60
2021/09/28 04:44:30;;;;;;;;;;;;;;;17.85;62.60;101853.81;5078330;28;2006;-62
2021/09/28 04:46:55;;;;;;;;;;;;;;;17.84;62.32;101850.25;5078417;28;1080;-60
2021/09/28 04:49:21;;;;;;;;;;;;;;;17.85;62.15;101853.81;5078436;28;941;-60
2021/09/28 04:51:46;;;;;;;;;;;;;;;17.83;62.16;101855.78;5078311;28;798;-60
2021/09/28 04:54:11;;;;;;;;;;;;;;;17.83;62.83;101855.78;5059973;28;1891;-60
2021/09/28 04:56:36;;;;;;;;;;;;;;;17.81;61.90;101860.44;5078248;28;803;-61
2021/09/28 04:59:02;;;;;;;;;;;;;;;17.80;62.66;101854.19;5078631;28;886;-61
2021/09/28 05:01:27;;;;;;;;;;;;;;;17.79;62.30;101865.06;5077588;28;2053;-61
2021/09/28 05:03:52;;;;;;;;;;;;;;;17.80;62.44;101864.09;5059820;28;2032;-61
2021/09/28 05:06:17;;;;;;;;;;;;;;;17.77;62.63;101859.81;5078286;28;1466;-61
2021/09/28 05:08:42;;;;;;;;;;;;;;;17.77;62.65;101859.81;5078062;28;993;-61
2021/09/28 05:11:07;;;;;;;;;;;;;;;17.78;62.47;101874.16;5077610;28;1072;-61
2021/09/28 05:13:32;;;;;;;;;;;;;;;17.77;62.14;101867.03;5078005;28;1898;-62
2021/09/28 05:15:57;;;;;;;;;;;;;;;17.75;62.28;101866.28;5078403;28;1542;-62
2021/09/28 05:18:22;;;;;;;;;;;;;;;17.73;62.07;101863.75;5078223;28;1013;-62
2021/09/28 05:20:47;;;;;;;;;;;;;;;17.73;62.08;101866.44;5077618;28;2030;-62
2021/09/28 05:23:12;;;;;;;;;;;;;;;17.73;61.90;101862.88;5077632;28;878;-62
2021/09/28 05:25:37;;;;;;;;;;;;;;;17.73;62.38;101871.84;5078040;28;1623;-62
2021/09/28 05:28:02;;;;;;;;;;;;;;;17.73;61.94;101876.38;5077762;28;965;-62
2021/09/28 05:30:27;;;;;;;;;;;;;;;17.71;62.36;101868.41;5077166;28;799;-61
2021/09/28 05:32:53;;;;;;;;;;;;;;;17.71;62.26;101872.94;5077315;28;1992;-61
2021/09/28 05:35:18;;;;;;;;;;;;;;;17.71;62.25;101871.09;5077444;28;910;-62
2021/09/28 05:37:43;;;;;;;;;;;;;;;17.71;62.06;101867.53;5077454;28;803;-62
2021/09/28 05:40:08;;;;;;;;;;;;;;;17.75;62.69;101872.53;5076743;28;1762;-61
2021/09/28 05:42:33;;;;;;;;;;;;;;;17.79;62.87;101873.16;5076682;28;1727;-62
2021/09/28 05:44:58;;;;;;;;;;;;;;;17.81;62.25;101879.31;5076507;28;950;-62
2021/09/28 05:47:23;;;;;;;;;;;;;;;17.79;62.53;101879.41;5057987;28;1232;-62
2021/09/28 05:49:48;;;;;;;;;;;;;;;17.77;63.50;101877.81;5076480;28;1606;-62
2021/09/28 05:52:14;;;;;;;;;;;;;;;17.77;63.67;101883.22;5060490;28;1239;-61
2021/09/28 05:54:47;;;;;;;;;;;;;;;17.76;64.51;101884.19;5075923;28;1913;-62
2021/09/28 05:57:13;;;;;;;;;;;;;;;17.76;63.38;101881.50;5075164;28;1459;-61
2021/09/28 05:59:39;;;;;;;;;;;;;;;17.76;63.93;101885.06;5076177;28;1696;-62
2021/09/28 06:02:04;;;;;;;;;;;;;;;17.79;64.04;101884.81;5076381;28;1606;-62
2021/09/28 06:04:30;;;;;;;;;;;;;;;17.81;64.03;101896.34;5066545;28;1793;-62
2021/09/28 06:06:55;;;;;;;;;;;;;;;17.82;63.54;101887.28;5076751;28;1591;-62
2021/09/28 06:09:20;;;;;;;;;;;;;;;17.85;63.74;101894.28;5076112;28;1899;-62
2021/09/28 06:11:45;;;;;;;;;;;;;;;17.81;63.95;101893.66;5058428;28;2214;-62
2021/09/28 06:14:10;;;;;;;;;;;;;;;17.68;63.86;101885.66;5076269;28;1964;-62
2021/09/28 06:16:35;;;;;;;;;;;;;;;17.81;63.70;101885.56;5075993;28;1526;-63
2021/09/28 06:19:00;;;;;;;;;;;;;;;17.88;62.87;101889.50;5076238;28;1791;-62
2021/09/28 06:21:25;;;;;;;;;;;;;;;17.90;62.25;101892.06;5076597;28;953;-63
2021/09/28 06:23:53;;;;;;;;;;;;;;;17.92;62.15;101898.19;5076063;28;890;-63
2021/09/28 06:26:18;;;;;;;;;;;;;;;17.94;61.90;101891.69;5075744;28;779;-63
2021/09/28 06:28:43;;;;;;;;;;;;;;;17.99;62.14;101896.72;5075586;28;1172;-63
2021/09/28 06:31:08;;;;;;;;;;;;;;;18.10;61.44;101896.72;5076807;28;1827;-64
2021/09/28 06:33:33;;;;;;;;;;;;;;;18.21;62.31;101899.44;5091676;28;1961;-62
2021/09/28 06:35:58;;;;;;;;;;;;;;;18.31;62.41;101899.53;5079087;28;1404;-63
2021/09/28 06:38:23;;;;;;;;;;;;;;;18.38;62.66;101892.69;5089542;28;1297;-62
2021/09/28 06:40:48;;;;;;;;;;;;;;;18.47;61.67;101900.00;5084810;28;1754;-62
2021/09/28 06:43:13;;;;;;;;;;;;;;;18.55;62.36;101902.09;5082726;28;1292;-63
2021/09/28 06:45:39;;;;;;;;;;;;;;;18.61;63.49;101902.50;5091979;28;1248;-64
2021/09/28 06:48:04;;;;;;;;;;;;;;;18.70;62.94;101903.56;5078899;28;1726;-63
2021/09/28 06:50:29;;;;;;;;;;;;;;;18.76;63.70;101894.09;5088417;28;1326;-62
2021/09/28 06:52:54;;;;;;;;;;;;;;;18.64;61.84;101895.97;5085962;28;1981;-63
2021/09/28 06:55:19;;;;;;;;;;;;;;;18.66;61.73;101908.34;5079839;28;1651;-62
2021/09/28 06:57:44;;;;;;;;;;;;;;;18.69;62.60;101899.16;5075981;28;1427;-61
2021/09/28 07:00:09;;;;;;;;;;;;;;;18.83;63.39;101912.34;5090532;28;1153;-62
2021/09/28 07:02:34;;;;;;;;;;;;;;;18.89;63.20;101911.88;5078741;28;1395;-62
2021/09/28 07:04:59;;;;;;;;;;;;;;;18.92;61.96;101908.06;5086654;28;1332;-62
2021/09/28 07:07:25;;;;;;;;;;;;;;;18.96;63.80;101915.78;5095161;28;843;-61
2021/09/28 07:09:50;;;;;;;;;;;;;;;19.07;62.96;101906.78;5078011;28;1317;-63
2021/09/28 07:12:15;;;;;;;;;;;;;;;19.00;63.25;101906.41;5090426;28;1518;-63
2021/09/28 07:14:40;;;;;;;;;;;;;;;19.06;62.71;101914.00;5078977;28;1898;-63
2021/09/28 07:17:05;;;;;;;;;;;;;;;19.12;63.72;101909.09;5081574;28;1801;-62
2021/09/28 07:19:30;;;;;;;;;;;;;;;19.15;63.83;101908.84;5075414;28;1642;-62
2021/09/28 07:21:55;;;;;;;;;;;;;;;19.19;63.07;101915.69;5077361;28;1347;-61
2021/09/28 07:24:20;;;;;;;;;;;;;;;19.25;63.98;101915.16;5086278;28;1458;-61
2021/09/28 07:26:45;;;;;;;;;;;;;;;19.29;63.37;101919.34;5079819;28;1431;-62
2021/09/28 07:29:10;;;;;;;;;;;;;;;19.32;63.61;101922.66;5086619;28;1635;-62
2021/09/28 07:31:35;;;;;;;;;;;;;;;19.34;63.39;101917.09;5089299;28;1389;-61
2021/09/28 07:34:00;;;;;;;;;;;;;;;19.42;63.53;101911.91;5084322;28;1957;-63
2021/09/28 07:36:26;;;;;;;;;;;;;;;19.46;63.66;101916.06;5076007;28;1868;-63
2021/09/28 07:38:51;;;;;;;;;;;;;;;19.51;63.86;101913.00;5083030;28;1299;-63
2021/09/28 07:41:16;;;;;;;;;;;;;;;19.56;63.96;101918.84;5077439;28;1552;-61
2021/09/28 07:43:41;;;;;;;;;;;;;;;19.57;63.23;101918.72;5086582;28;1451;-62
2021/09/28 07:46:07;;;;;;;;;;;;;;;19.61;63.65;101920.19;5083844;28;1264;-62
2021/09/28 07:48:32;;;;;;;;;;;;;;;19.65;63.34;101918.06;5082467;28;1229;-63
2021/09/28 07:50:59;;;;;;;;;;;;;;;19.67;63.18;101927.78;5073743;28;1246;-62
2021/09/28 07:53:24;;;;;;;;;;;;;;;19.65;62.93;101918.94;5078870;28;1914;-64
2021/09/28 07:55:49;;;;;;;;;;;;;;;19.67;63.10;101930.47;5068730;28;1249;-63
2021/09/28 07:58:15;;;;;;;;;;;;;;;19.76;62.65;101932.38;5085589;28;1253;-62
2021/09/28 08:00:42;;;;;;;;;;;;;;;19.73;63.02;101926.38;5094622;28;854;-65
2021/09/28 08:03:07;;;;;;;;;;;;;;;19.62;63.69;101931.84;5094734;28;795;-64
2021/09/28 08:05:32;;;;;;;;;;;;;;;19.58;63.31;101927.69;5094959;28;852;-63
2021/09/28 08:07:57;;;;;;;;;;;;;;;19.57;63.68;101940.34;5094991;28;786;-64
2021/09/28 08:10:22;;;;;;;;;;;;;;;19.53;63.43;101938.88;5097076;28;1060;-63
2021/09/28 08:12:47;;;;;;;;;;;;;;;19.47;63.39;101939.41;5070800;28;1852;-66
2021/09/28 08:15:12;;;;;;;;;;;;;;;19.48;64.37;101940.25;5078668;28;1975;-63
2021/09/28 08:17:38;;;;;;;;;;;;;;;19.47;63.04;101934.00;5078729;28;835;-65
2021/09/28 08:20:03;;;;;;;;;;;;;;;19.47;63.82;101934.00;5078440;28;1820;-65
2021/09/28 08:22:28;;;;;;;;;;;;;;;19.46;63.79;101937.69;5062529;28;1724;-63
2021/09/28 08:25:05;;;;;;;;;;;;;;;19.48;63.51;101930.31;5078529;28;1837;-62
2021/09/28 08:30:28;;;;;;;;;;;;;;;19.41;62.91;101943.47;5027667;28;1305;-62
2021/09/28 08:32:53;;;;;;;;;;;;;;;19.41;63.95;101943.47;5059612;28;1905;-62
2021/09/28 08:35:18;;;;;;;;;;;;;;;19.38;64.28;101942.88;5078010;28;1009;-62
2021/09/28 08:37:43;;;;;;;;;;;;;;;19.35;64.17;101954.78;5078182;28;898;-61
2021/09/28 08:40:08;;;;;;;;;;;;;;;19.33;64.12;101947.81;5077878;28;1774;-62
2021/09/28 08:42:33;;;;;;;;;;;;;;;19.32;63.48;101943.41;5078271;28;846;-63
2021/09/28 08:44:59;;;;;;;;;;;;;;;19.33;64.46;101942.41;5078333;28;1001;-62
2021/09/28 08:47:24;;;;;;;;;;;;;;;19.34;64.73;101941.44;5078035;28;854;-63
2021/09/28 08:49:49;;;;;;;;;;;;;;;19.34;64.47;101942.28;5077979;28;1261;-64
2021/09/28 08:52:14;;;;;;;;;;;;;;;19.36;63.86;101943.00;5077722;28;1835;-62
2021/09/28 08:54:39;;;;;;;;;;;;;;;19.34;64.61;101944.13;5077404;28;1973;-62
2021/09/28 08:57:04;;;;;;;;;;;;;;;19.32;64.69;101940.72;5077637;28;842;-62
2021/09/28 08:59:29;;;;;;;;;;;;;;;19.33;64.76;101942.41;5077774;28;938;-64
2021/09/28 09:01:55;;;;;;;;;;;;;;;19.32;64.75;101949.69;5077658;28;847;-63
2021/09/28 09:04:21;;;;;;;;;;;;;;;19.34;64.44;101945.00;5077849;28;771;-62
2021/09/28 09:06:46;;;;;;;;;;;;;;;19.33;65.09;101942.41;5077169;28;1722;-61
2021/09/28 09:09:11;;;;;;;;;;;;;;;19.33;64.35;101937.88;5077183;28;1342;-62
2021/09/28 09:11:36;;;;;;;;;;;;;;;19.37;63.64;101944.72;5076805;28;1593;-62
2021/09/28 09:14:01;;;;;;;;;;;;;;;19.36;64.31;101943.00;5076933;28;1901;-62
2021/09/28 09:16:27;;;;;;;;;;;;;;;19.30;64.30;101942.69;5059159;28;2671;-62
2021/09/28 09:18:52;;;;;;;;;;;;;;;19.24;63.53;101935.94;5077046;28;1026;-62
2021/09/28 09:21:17;;;;;;;;;;;;;;;19.20;64.03;101941.72;5075949;28;1366;-62
2021/09/28 09:23:42;;;;;;;;;;;;;;;19.17;63.68;101936.59;5076482;28;1240;-62
2021/09/28 09:26:07;;;;;;;;;;;;;;;19.16;63.83;101943.84;5075595;28;1422;-62
2021/09/28 09:28:33;;;;;;;;;;;;;;;19.15;64.61;101933.16;5077368;28;895;-62
2021/09/28 09:30:58;;;;;;;;;;;;;;;19.16;64.12;101934.88;5076984;28;2013;-62
2021/09/28 09:33:24;;;;;;;;;;;;;;;19.15;64.57;101928.63;5058764;28;1940;-62
2021/09/28 09:35:49;;;;;;;;;;;;;;;19.14;63.70;101932.31;5076917;28;1849;-62
2021/09/28 09:38:15;;;;;;;;;;;;;;;19.13;64.04;101935.13;5076595;28;1590;-62
2021/09/28 09:40:40;;;;;;;;;;;;;;;19.20;63.90;101920.09;5077775;28;1336;-63
2021/09/28 09:43:05;;;;;;;;;;;;;;;19.21;63.74;101922.66;5075758;28;1234;-63
2021/09/28 09:45:30;;;;;;;;;;;;;;;19.26;64.42;101925.00;5076656;28;1445;-63
2021/09/28 09:47:55;;;;;;;;;;;;;;;19.28;64.05;101923.03;5075702;28;1411;-60
2021/09/28 09:50:21;;;;;;;;;;;;;;;19.29;64.38;101924.75;5075732;28;1330;-64
2021/09/28 09:52:47;;;;;;;;;;;;;;;19.26;64.18;101920.44;5076924;28;1345;-65
2021/09/28 09:55:12;;;;;;;;;;;;;;;19.25;64.32;101925.97;5076879;28;1969;-63
2021/09/28 09:57:39;;;;;;;;;;;;;;;19.24;64.69;101916.16;5076360;28;1497;-62
2021/09/28 10:00:04;;;;;;;;;;;;;;;19.23;65.32;101915.28;5077435;28;798;-62
2021/09/28 10:02:30;;;;;;;;;;;;;;;19.19;64.33;101911.13;5075835;28;2009;-63
2021/09/28 10:04:55;;;;;;;;;;;;;;;19.16;64.30;101914.13;5076399;28;2081;-62
2021/09/28 10:07:20;;;;;;;;;;;;;;;19.15;64.48;101915.09;5076676;28;1843;-63
2021/09/28 10:09:45;;;;;;;;;;;;;;;19.13;64.32;101914.38;5076956;28;1563;-63
2021/09/28 10:12:11;;;;;;;;;;;;;;;19.12;63.83;101917.19;5076559;28;1563;-63
2021/09/28 10:14:36;;;;;;;;;;;;;;;19.12;64.01;101909.94;5075112;28;1906;-65
2021/09/28 10:17:02;;;;;;;;;;;;;;;19.12;64.06;101917.19;5075692;28;1337;-62
2021/09/28 10:19:27;;;;;;;;;;;;;;;19.10;63.76;101897.56;5075464;28;1495;-62
2021/09/28 10:21:52;;;;;;;;;;;;;;;19.09;63.56;101899.41;5075650;28;1352;-63
2021/09/28 10:24:17;;;;;;;;;;;;;;;19.07;63.68;101904.94;5075136;28;1370;-64
2021/09/28 10:26:42;;;;;;;;;;;;;;;19.09;63.43;101896.69;5075429;28;1340;-63
2021/09/28 10:29:07;;;;;;;;;;;;;;;19.10;63.99;101900.25;5075218;28;1647;-64
2021/09/28 10:31:32;;;;;;;;;;;;;;;19.07;63.71;101902.22;5074762;28;1717;-63
2021/09/28 10:33:57;;;;;;;;;;;;;;;19.09;64.26;101899.41;5073946;28;1953;-63
2021/09/28 10:36:25;;;;;;;;;;;;;;;19.07;64.35;101896.81;5075465;28;1738;-63
2021/09/28 10:38:53;;;;;;;;;;;;;;;19.06;63.54;101897.81;5075784;28;1518;-63
2021/09/28 10:41:18;;;;;;;;;;;;;;;19.05;64.30;101896.09;5074670;28;1646;-63
2021/09/28 10:43:43;;;;;;;;;;;;;;;19.08;63.47;101895.84;5075946;28;1534;-63
2021/09/28 10:46:08;;;;;;;;;;;;;;;19.08;63.60;101890.44;5075803;28;1619;-63
2021/09/28 10:48:33;;;;;;;;;;;;;;;19.07;64.36;101888.72;5074997;28;1668;-63
2021/09/28 10:50:58;;;;;;;;;;;;;;;19.08;63.86;101893.13;5074183;28;1715;-63
2021/09/28 10:53:24;;;;;;;;;;;;;;;19.10;64.22;101889.44;5074623;28;2053;-63
2021/09/28 10:55:49;;;;;;;;;;;;;;;19.21;63.52;101874.03;5076117;28;1635;-63
2021/09/28 10:58:22;;;;;;;;;;;;;;;19.27;64.25;101880.75;5075988;28;1383;-63
2021/09/28 11:00:52;;;;;;;;;;;;;;;19.33;63.50;101872.16;5075988;28;1547;-64
2021/09/28 11:03:17;;;;;;;;;;;;;;;19.43;63.37;101862.25;5076344;28;1428;-64
2021/09/28 11:05:42;;;;;;;;;;;;;;;19.49;63.30;101866.28;5081574;28;1976;-64
2021/09/28 11:08:07;;;;;;;;;;;;;;;19.51;63.67;101854.38;5058469;28;1681;-67
2021/09/28 11:10:32;;;;;;;;;;;;;;;19.52;64.33;101869.59;5091895;28;1576;-67
2021/09/28 11:12:57;;;;;;;;;;;;;;;19.54;63.82;101861.34;5082118;28;1960;-66
2021/09/28 11:15:22;;;;;;;;;;;;;;;19.56;64.56;101860.22;5080655;28;1797;-64
2021/09/28 11:17:47;;;;;;;;;;;;;;;19.58;63.94;101860.94;5074371;28;1722;-64
2021/09/28 11:20:13;;;;;;;;;;;;;;;19.58;64.75;101863.66;5074844;28;1557;-63
2021/09/28 11:22:38;;;;;;;;;;;;;;;19.58;64.01;101855.53;5080114;28;1321;-62
2021/09/28 11:25:03;;;;;;;;;;;;;;;19.61;64.97;101849.88;5094468;28;906;-61
2021/09/28 11:27:28;;;;;;;;;;;;;;;19.65;64.06;101854.03;5095555;28;1163;-62
2021/09/28 11:29:54;;;;;;;;;;;;;;;19.68;63.57;101848.34;5088641;28;1504;-62
2021/09/28 11:32:19;;;;;;;;;;;;;;;19.72;63.70;101846.22;5074143;28;1373;-63
2021/09/28 11:34:44;;;;;;;;;;;;;;;19.68;64.29;101842.94;5074216;28;1901;-62
2021/09/28 11:37:09;;;;;;;;;;;;;;;19.64;64.10;101846.91;5074041;28;1395;-64
2021/09/28 11:39:34;;;;;;;;;;;;;;;19.66;63.99;101833.25;5074564;28;1279;-65
2021/09/28 11:41:59;;;;;;;;;;;;;;;19.69;63.57;101831.13;5074874;28;851;-66
2021/09/28 11:44:24;;;;;;;;;;;;;;;19.76;64.25;101835.00;5073847;28;1711;-63
2021/09/28 11:46:50;;;;;;;;;;;;;;;19.75;63.76;101833.28;5076167;28;1331;-63
2021/09/28 11:49:15;;;;;;;;;;;;;;;19.81;64.05;101826.47;5074312;28;1305;-60
2021/09/28 11:51:40;;;;;;;;;;;;;;;19.85;63.98;101824.38;5074119;28;1259;-62
2021/09/28 11:54:05;;;;;;;;;;;;;;;19.89;63.63;101820.38;5074382;28;1922;-65
2021/09/28 11:56:31;;;;;;;;;;;;;;;19.89;63.99;101818.53;5055484;28;1129;-61
2021/09/28 11:58:56;;;;;;;;;;;;;;;19.91;63.39;101818.41;5078388;28;1370;-62
2021/09/28 12:01:21;;;;;;;;;;;;;;;19.90;63.41;101819.38;5075724;28;1459;-62
2021/09/28 12:03:46;;;;;;;;;;;;;;;19.93;63.65;101819.13;5057555;28;1334;-65
2021/09/28 12:08:39;;;;;;;;;;;;;;;19.80;64.10;101821.22;5079402;28;1461;-65
2021/09/28 12:11:04;;;;;;;;;;;;;;;19.77;63.72;101806.09;5076674;28;1575;-65
2021/09/28 12:13:29;;;;;;;;;;;;;;;19.77;63.38;101800.69;5055618;28;2411;-62
2021/09/28 12:15:55;;;;;;;;;;;;;;;19.88;63.83;101802.47;5074520;28;1696;-60
2021/09/28 12:18:20;;;;;;;;;;;;;;;19.93;64.38;101811.88;5074385;28;1643;-66
2021/09/28 12:20:45;;;;;;;;;;;;;;;20.00;63.45;101795.94;5075416;28;1751;-64
2021/09/28 12:23:10;;;;;;;;;;;;;;;20.04;62.98;101797.41;5076821;28;1443;-61
2021/09/28 12:25:37;;;;;;;;;;;;;;;20.02;63.29;101789.41;5076882;28;1538;-62
2021/09/28 12:28:02;;;;;;;;;;;;;;;20.03;63.40;101790.25;5083383;28;1707;-62
2021/09/28 12:30:27;;;;;;;;;;;;;;;20.09;63.57;101787.84;5085692;28;1830;-63
2021/09/28 12:32:52;;;;;;;;;;;;;;;20.12;64.45;101786.72;5074687;28;1745;-63
2021/09/28 12:35:17;;;;;;;;;;;;;;;20.16;64.63;101793.56;5075012;28;1894;-66
2021/09/28 12:37:42;;;;;;;;;;;;;;;20.20;64.96;101797.72;5076077;28;1673;-65
2021/09/28 12:40:07;;;;;;;;;;;;;;;20.17;64.38;101784.47;5078284;28;1612;-62
2021/09/28 12:42:33;;;;;;;;;;;;;;;20.26;64.72;101780.91;5080214;28;1471;-63